Terminal Aerodrome Forecast
Issued by NWS

Home | Current Version | Previous Version | Text Only | Print | Product List | Glossary On
Versions: 1 2 3 4 5 6 7 8 9 10 11 12 13 14
890
FTUS43 KAPX 240741 AAA
TAFAPN
TAF AMD
KAPN 240741Z 2408/2506 15006KT 5SM -FZRA BR OVC040
     FM241200 20005KT 3SM BR VCSH OVC028
     FM241600 28005KT 2SM -RA BR OVC008
     FM241900 30005KT 2SM -RA BR OVC005
     FM242300 36004KT 2SM -RA BR OVC005
     FM250200 02005KT 2SM -RA BR OVC008=

USA.gov is the U.S. government's official web portal to all federal, state and local government web resources and services.